sensor_id;sensor_type;location;lat;lon;timestamp;temperature;humidity
62575;DHT22;53112;45.602;11.904;2022-12-13T00:00:18;2.90;64.40
62575;DHT22;53112;45.602;11.904;2022-12-13T00:02:44;2.80;63.90
62575;DHT22;53112;45.602;11.904;2022-12-13T00:05:11;2.90;63.90
62575;DHT22;53112;45.602;11.904;2022-12-13T00:07:37;2.90;64.10
62575;DHT22;53112;45.602;11.904;2022-12-13T00:10:04;3.00;64.30
62575;DHT22;53112;45.602;11.904;2022-12-13T00:12:30;3.00;63.90
62575;DHT22;53112;45.602;11.904;2022-12-13T00:14:56;3.10;64.10
62575;DHT22;53112;45.602;11.904;2022-12-13T00:17:22;3.00;64.40
62575;DHT22;53112;45.602;11.904;2022-12-13T00:19:48;3.00;63.90
62575;DHT22;53112;45.602;11.904;2022-12-13T00:22:14;3.10;63.70
62575;DHT22;53112;45.602;11.904;2022-12-13T00:24:41;3.10;63.70
62575;DHT22;53112;45.602;11.904;2022-12-13T00:27:07;3.10;63.90
62575;DHT22;53112;45.602;11.904;2022-12-13T00:29:33;3.20;63.40
62575;DHT22;53112;45.602;11.904;2022-12-13T00:31:59;3.20;63.20
62575;DHT22;53112;45.602;11.904;2022-12-13T00:34:25;3.20;63.20
62575;DHT22;53112;45.602;11.904;2022-12-13T00:36:53;3.20;63.00
62575;DHT22;53112;45.602;11.904;2022-12-13T00:39:19;3.20;63.00
62575;DHT22;53112;45.602;11.904;2022-12-13T00:41:45;3.20;63.30
62575;DHT22;53112;45.602;11.904;2022-12-13T00:44:12;3.20;63.00
62575;DHT22;53112;45.602;11.904;2022-12-13T00:46:39;3.30;62.50
62575;DHT22;53112;45.602;11.904;2022-12-13T00:49:05;3.30;62.40
62575;DHT22;53112;45.602;11.904;2022-12-13T00:51:33;3.40;62.30
62575;DHT22;53112;45.602;11.904;2022-12-13T00:53:59;3.30;62.80
62575;DHT22;53112;45.602;11.904;2022-12-13T00:56:28;3.40;62.90
62575;DHT22;53112;45.602;11.904;2022-12-13T00:58:55;3.50;62.40
62575;DHT22;53112;45.602;11.904;2022-12-13T01:01:24;3.50;62.30
62575;DHT22;53112;45.602;11.904;2022-12-13T01:03:54;3.50;62.20
62575;DHT22;53112;45.602;11.904;2022-12-13T01:09:23;3.60;62.90
62575;DHT22;53112;45.602;11.904;2022-12-13T01:12:04;3.70;61.30
62575;DHT22;53112;45.602;11.904;2022-12-13T01:14:34;3.90;61.20
62575;DHT22;53112;45.602;11.904;2022-12-13T01:17:00;4.00;61.20
62575;DHT22;53112;45.602;11.904;2022-12-13T01:19:27;4.00;60.80
62575;DHT22;53112;45.602;11.904;2022-12-13T01:21:58;3.70;61.60
62575;DHT22;53112;45.602;11.904;2022-12-13T01:24:24;3.50;64.30
62575;DHT22;53112;45.602;11.904;2022-12-13T01:26:51;3.40;63.90
62575;DHT22;53112;45.602;11.904;2022-12-13T01:29:18;3.30;64.30
62575;DHT22;53112;45.602;11.904;2022-12-13T01:31:44;3.50;64.10
62575;DHT22;53112;45.602;11.904;2022-12-13T01:34:11;3.50;64.40
62575;DHT22;53112;45.602;11.904;2022-12-13T01:36:39;3.40;64.40
62575;DHT22;53112;45.602;11.904;2022-12-13T01:39:08;3.50;64.30
62575;DHT22;53112;45.602;11.904;2022-12-13T01:41:34;3.70;63.40
62575;DHT22;53112;45.602;11.904;2022-12-13T01:44:05;3.70;63.20
62575;DHT22;53112;45.602;11.904;2022-12-13T01:46:33;3.70;62.50
62575;DHT22;53112;45.602;11.904;2022-12-13T01:49:14;3.80;63.20
62575;DHT22;53112;45.602;11.904;2022-12-13T01:51:51;3.80;62.90
62575;DHT22;53112;45.602;11.904;2022-12-13T01:54:24;3.90;62.30
62575;DHT22;53112;45.602;11.904;2022-12-13T01:56:56;3.90;62.40
62575;DHT22;53112;45.602;11.904;2022-12-13T01:59:23;3.70;63.40
62575;DHT22;53112;45.602;11.904;2022-12-13T02:01:50;3.40;64.90
62575;DHT22;53112;45.602;11.904;2022-12-13T02:04:23;3.50;64.20
62575;DHT22;53112;45.602;11.904;2022-12-13T02:06:51;3.60;63.70
62575;DHT22;53112;45.602;11.904;2022-12-13T02:09:18;3.60;63.80
62575;DHT22;53112;45.602;11.904;2022-12-13T02:11:46;3.60;64.10
62575;DHT22;53112;45.602;11.904;2022-12-13T02:14:12;3.70;63.60
62575;DHT22;53112;45.602;11.904;2022-12-13T02:19:18;3.70;63.70
62575;DHT22;53112;45.602;11.904;2022-12-13T02:24:59;3.80;62.70
62575;DHT22;53112;45.602;11.904;2022-12-13T02:30:25;3.90;62.40
62575;DHT22;53112;45.602;11.904;2022-12-13T02:39:30;3.80;62.80
62575;DHT22;53112;45.602;11.904;2022-12-13T02:42:04;3.70;63.70
62575;DHT22;53112;45.602;11.904;2022-12-13T02:44:40;3.60;64.20
62575;DHT22;53112;45.602;11.904;2022-12-13T02:47:17;3.70;63.10
62575;DHT22;53112;45.602;11.904;2022-12-13T02:49:47;3.90;62.60
62575;DHT22;53112;45.602;11.904;2022-12-13T02:52:17;3.90;62.50
62575;DHT22;53112;45.602;11.904;2022-12-13T02:54:46;3.90;62.70
62575;DHT22;53112;45.602;11.904;2022-12-13T02:57:38;4.00;62.30
62575;DHT22;53112;45.602;11.904;2022-12-13T03:00:13;3.90;62.00
62575;DHT22;53112;45.602;11.904;2022-12-13T03:08:39;3.90;62.70
62575;DHT22;53112;45.602;11.904;2022-12-13T03:11:15;3.80;63.10
62575;DHT22;53112;45.602;11.904;2022-12-13T03:16:20;3.90;61.90
62575;DHT22;53112;45.602;11.904;2022-12-13T03:18:50;3.80;62.50
62575;DHT22;53112;45.602;11.904;2022-12-13T03:24:38;3.90;61.70
62575;DHT22;53112;45.602;11.904;2022-12-13T03:27:04;3.90;61.60
62575;DHT22;53112;45.602;11.904;2022-12-13T03:29:30;4.00;61.40
62575;DHT22;53112;45.602;11.904;2022-12-13T03:31:56;4.10;61.30
62575;DHT22;53112;45.602;11.904;2022-12-13T03:34:22;4.00;61.40
62575;DHT22;53112;45.602;11.904;2022-12-13T03:36:48;3.90;62.40
62575;DHT22;53112;45.602;11.904;2022-12-13T03:39:14;3.90;62.60
62575;DHT22;53112;45.602;11.904;2022-12-13T03:41:40;4.00;61.60
62575;DHT22;53112;45.602;11.904;2022-12-13T03:44:07;4.10;61.80
62575;DHT22;53112;45.602;11.904;2022-12-13T03:46:33;4.20;61.00
62575;DHT22;53112;45.602;11.904;2022-12-13T03:48:59;4.20;61.10
62575;DHT22;53112;45.602;11.904;2022-12-13T03:51:25;4.20;60.90
62575;DHT22;53112;45.602;11.904;2022-12-13T03:53:51;4.10;61.40
62575;DHT22;53112;45.602;11.904;2022-12-13T03:56:17;4.00;62.10
62575;DHT22;53112;45.602;11.904;2022-12-13T03:58:42;4.10;61.10
62575;DHT22;53112;45.602;11.904;2022-12-13T04:01:13;4.20;61.10
62575;DHT22;53112;45.602;11.904;2022-12-13T04:03:42;4.20;60.50
62575;DHT22;53112;45.602;11.904;2022-12-13T04:06:08;4.30;60.30
62575;DHT22;53112;45.602;11.904;2022-12-13T04:08:35;4.30;59.90
62575;DHT22;53112;45.602;11.904;2022-12-13T04:11:02;4.10;61.40
62575;DHT22;53112;45.602;11.904;2022-12-13T04:13:48;4.10;62.00
62575;DHT22;53112;45.602;11.904;2022-12-13T04:16:14;4.10;61.40
62575;DHT22;53112;45.602;11.904;2022-12-13T04:18:40;4.10;61.80
62575;DHT22;53112;45.602;11.904;2022-12-13T04:21:06;4.00;62.40
62575;DHT22;53112;45.602;11.904;2022-12-13T04:23:32;4.00;62.50
62575;DHT22;53112;45.602;11.904;2022-12-13T04:25:58;4.00;62.50
62575;DHT22;53112;45.602;11.904;2022-12-13T04:28:25;4.00;62.90
62575;DHT22;53112;45.602;11.904;2022-12-13T04:30:51;3.90;62.70
62575;DHT22;53112;45.602;11.904;2022-12-13T04:33:17;4.00;63.30
62575;DHT22;53112;45.602;11.904;2022-12-13T04:35:46;4.10;63.10
62575;DHT22;53112;45.602;11.904;2022-12-13T04:38:12;4.10;62.70
62575;DHT22;53112;45.602;11.904;2022-12-13T04:40:38;4.10;62.80
62575;DHT22;53112;45.602;11.904;2022-12-13T04:43:04;4.10;62.50
62575;DHT22;53112;45.602;11.904;2022-12-13T04:45:30;4.20;62.20
62575;DHT22;53112;45.602;11.904;2022-12-13T04:47:56;4.30;61.40
62575;DHT22;53112;45.602;11.904;2022-12-13T04:50:22;4.40;60.70
62575;DHT22;53112;45.602;11.904;2022-12-13T04:52:48;4.40;60.30
62575;DHT22;53112;45.602;11.904;2022-12-13T04:55:14;4.40;61.70
62575;DHT22;53112;45.602;11.904;2022-12-13T04:57:40;4.40;61.60
62575;DHT22;53112;45.602;11.904;2022-12-13T05:00:07;4.40;60.80
62575;DHT22;53112;45.602;11.904;2022-12-13T05:02:34;4.60;61.10
62575;DHT22;53112;45.602;11.904;2022-12-13T05:05:00;4.60;61.20
62575;DHT22;53112;45.602;11.904;2022-12-13T05:07:26;4.70;61.20
62575;DHT22;53112;45.602;11.904;2022-12-13T05:09:52;4.60;61.40
62575;DHT22;53112;45.602;11.904;2022-12-13T05:12:18;4.50;62.20
62575;DHT22;53112;45.602;11.904;2022-12-13T05:14:44;4.70;61.60
62575;DHT22;53112;45.602;11.904;2022-12-13T05:17:10;4.70;61.10
62575;DHT22;53112;45.602;11.904;2022-12-13T05:19:36;4.50;62.00
62575;DHT22;53112;45.602;11.904;2022-12-13T05:22:02;4.70;62.10
62575;DHT22;53112;45.602;11.904;2022-12-13T05:24:29;4.70;61.80
62575;DHT22;53112;45.602;11.904;2022-12-13T05:26:56;4.60;62.20
62575;DHT22;53112;45.602;11.904;2022-12-13T05:29:23;4.60;62.70
62575;DHT22;53112;45.602;11.904;2022-12-13T05:31:48;4.60;62.50
62575;DHT22;53112;45.602;11.904;2022-12-13T05:34:15;4.70;62.70
62575;DHT22;53112;45.602;11.904;2022-12-13T05:36:41;4.80;61.40
62575;DHT22;53112;45.602;11.904;2022-12-13T05:39:07;4.60;62.30
62575;DHT22;53112;45.602;11.904;2022-12-13T05:41:35;4.70;62.50
62575;DHT22;53112;45.602;11.904;2022-12-13T05:44:01;4.80;62.10
62575;DHT22;53112;45.602;11.904;2022-12-13T05:46:27;4.90;62.10
62575;DHT22;53112;45.602;11.904;2022-12-13T05:48:53;4.80;62.00
62575;DHT22;53112;45.602;11.904;2022-12-13T05:51:19;4.70;62.00
62575;DHT22;53112;45.602;11.904;2022-12-13T05:53:45;4.80;62.20
62575;DHT22;53112;45.602;11.904;2022-12-13T05:56:11;4.70;61.70
62575;DHT22;53112;45.602;11.904;2022-12-13T05:58:38;4.80;61.70
62575;DHT22;53112;45.602;11.904;2022-12-13T06:01:10;4.70;61.00
62575;DHT22;53112;45.602;11.904;2022-12-13T06:03:36;4.80;61.10
62575;DHT22;53112;45.602;11.904;2022-12-13T06:06:04;4.70;61.20
62575;DHT22;53112;45.602;11.904;2022-12-13T06:08:30;4.70;61.20
62575;DHT22;53112;45.602;11.904;2022-12-13T06:10:58;4.70;61.10
62575;DHT22;53112;45.602;11.904;2022-12-13T06:13:24;4.80;61.20
62575;DHT22;53112;45.602;11.904;2022-12-13T06:15:51;4.90;61.00
62575;DHT22;53112;45.602;11.904;2022-12-13T06:18:17;4.80;60.60
62575;DHT22;53112;45.602;11.904;2022-12-13T06:20:43;4.90;60.30
62575;DHT22;53112;45.602;11.904;2022-12-13T06:23:09;4.60;61.90
62575;DHT22;53112;45.602;11.904;2022-12-13T06:25:35;4.60;61.50
62575;DHT22;53112;45.602;11.904;2022-12-13T06:28:01;4.50;61.90
62575;DHT22;53112;45.602;11.904;2022-12-13T06:30:28;4.50;62.00
62575;DHT22;53112;45.602;11.904;2022-12-13T06:32:55;4.70;61.50
62575;DHT22;53112;45.602;11.904;2022-12-13T06:35:21;4.70;61.00
62575;DHT22;53112;45.602;11.904;2022-12-13T06:37:51;4.60;61.40
62575;DHT22;53112;45.602;11.904;2022-12-13T06:40:17;4.60;61.30
62575;DHT22;53112;45.602;11.904;2022-12-13T06:42:43;4.70;60.90
62575;DHT22;53112;45.602;11.904;2022-12-13T06:45:09;4.80;60.10
62575;DHT22;53112;45.602;11.904;2022-12-13T06:47:35;4.90;59.90
62575;DHT22;53112;45.602;11.904;2022-12-13T06:50:02;4.80;60.20
62575;DHT22;53112;45.602;11.904;2022-12-13T06:52:28;4.80;60.40
62575;DHT22;53112;45.602;11.904;2022-12-13T06:54:54;4.80;60.60
62575;DHT22;53112;45.602;11.904;2022-12-13T06:57:20;4.80;60.10
62575;DHT22;53112;45.602;11.904;2022-12-13T06:59:46;4.90;60.20
62575;DHT22;53112;45.602;11.904;2022-12-13T07:02:12;4.90;59.80
62575;DHT22;53112;45.602;11.904;2022-12-13T07:04:38;4.90;60.30
62575;DHT22;53112;45.602;11.904;2022-12-13T07:07:03;4.90;59.60
62575;DHT22;53112;45.602;11.904;2022-12-13T07:09:30;4.90;59.50
62575;DHT22;53112;45.602;11.904;2022-12-13T07:11:56;4.90;59.70
62575;DHT22;53112;45.602;11.904;2022-12-13T07:14:22;4.90;59.60
62575;DHT22;53112;45.602;11.904;2022-12-13T07:16:48;4.90;59.20
62575;DHT22;53112;45.602;11.904;2022-12-13T07:19:14;5.00;59.10
62575;DHT22;53112;45.602;11.904;2022-12-13T07:21:39;5.10;58.60
62575;DHT22;53112;45.602;11.904;2022-12-13T07:24:06;5.10;59.10
62575;DHT22;53112;45.602;11.904;2022-12-13T07:26:31;5.10;59.60
62575;DHT22;53112;45.602;11.904;2022-12-13T07:28:57;5.10;58.40
62575;DHT22;53112;45.602;11.904;2022-12-13T07:31:24;5.00;59.80
62575;DHT22;53112;45.602;11.904;2022-12-13T07:33:50;5.10;58.90
62575;DHT22;53112;45.602;11.904;2022-12-13T07:36:19;5.10;58.70
62575;DHT22;53112;45.602;11.904;2022-12-13T07:38:51;5.20;59.10
62575;DHT22;53112;45.602;11.904;2022-12-13T07:41:17;5.30;58.50
62575;DHT22;53112;45.602;11.904;2022-12-13T07:43:44;5.30;58.30
62575;DHT22;53112;45.602;11.904;2022-12-13T07:46:10;5.30;57.70
62575;DHT22;53112;45.602;11.904;2022-12-13T07:48:36;5.50;58.20
62575;DHT22;53112;45.602;11.904;2022-12-13T07:51:08;5.50;57.30
62575;DHT22;53112;45.602;11.904;2022-12-13T07:53:36;5.60;57.80
62575;DHT22;53112;45.602;11.904;2022-12-13T07:56:10;5.60;57.80
62575;DHT22;53112;45.602;11.904;2022-12-13T07:58:37;5.60;57.00
62575;DHT22;53112;45.602;11.904;2022-12-13T08:01:05;5.50;57.60
62575;DHT22;53112;45.602;11.904;2022-12-13T08:03:36;5.60;58.20
62575;DHT22;53112;45.602;11.904;2022-12-13T08:06:09;5.60;57.50
62575;DHT22;53112;45.602;11.904;2022-12-13T08:08:37;5.60;58.20
62575;DHT22;53112;45.602;11.904;2022-12-13T08:11:11;5.70;57.70
62575;DHT22;53112;45.602;11.904;2022-12-13T08:13:38;5.70;57.50
62575;DHT22;53112;45.602;11.904;2022-12-13T08:16:05;5.70;57.00
62575;DHT22;53112;45.602;11.904;2022-12-13T08:18:32;5.60;57.30
62575;DHT22;53112;45.602;11.904;2022-12-13T08:20:59;5.70;57.10
62575;DHT22;53112;45.602;11.904;2022-12-13T08:23:26;5.80;56.90
62575;DHT22;53112;45.602;11.904;2022-12-13T08:25:53;5.90;55.90
62575;DHT22;53112;45.602;11.904;2022-12-13T08:28:19;5.90;56.50
62575;DHT22;53112;45.602;11.904;2022-12-13T08:30:46;6.00;56.00
62575;DHT22;53112;45.602;11.904;2022-12-13T08:33:13;6.10;56.20
62575;DHT22;53112;45.602;11.904;2022-12-13T08:35:39;6.20;56.30
62575;DHT22;53112;45.602;11.904;2022-12-13T08:38:05;6.20;55.50
62575;DHT22;53112;45.602;11.904;2022-12-13T08:40:32;6.00;55.20
62575;DHT22;53112;45.602;11.904;2022-12-13T08:42:57;6.10;55.10
62575;DHT22;53112;45.602;11.904;2022-12-13T08:45:23;6.30;54.90
62575;DHT22;53112;45.602;11.904;2022-12-13T08:47:50;6.20;54.30
62575;DHT22;53112;45.602;11.904;2022-12-13T08:50:16;6.40;53.90
62575;DHT22;53112;45.602;11.904;2022-12-13T08:52:41;6.70;54.50
62575;DHT22;53112;45.602;11.904;2022-12-13T08:55:14;6.80;54.50
62575;DHT22;53112;45.602;11.904;2022-12-13T08:57:41;6.90;54.30
62575;DHT22;53112;45.602;11.904;2022-12-13T09:00:10;7.00;53.40
62575;DHT22;53112;45.602;11.904;2022-12-13T09:02:36;6.80;53.10
62575;DHT22;53112;45.602;11.904;2022-12-13T09:05:03;6.60;53.40
62575;DHT22;53112;45.602;11.904;2022-12-13T09:07:29;6.60;54.40
62575;DHT22;53112;45.602;11.904;2022-12-13T09:09:55;6.70;52.10
62575;DHT22;53112;45.602;11.904;2022-12-13T09:12:22;6.90;54.30
62575;DHT22;53112;45.602;11.904;2022-12-13T09:14:47;7.20;54.40
62575;DHT22;53112;45.602;11.904;2022-12-13T09:17:14;7.40;54.20
62575;DHT22;53112;45.602;11.904;2022-12-13T09:19:40;7.20;53.10
62575;DHT22;53112;45.602;11.904;2022-12-13T09:22:06;6.90;54.50
62575;DHT22;53112;45.602;11.904;2022-12-13T09:24:32;7.10;55.00
62575;DHT22;53112;45.602;11.904;2022-12-13T09:26:58;7.50;53.90
62575;DHT22;53112;45.602;11.904;2022-12-13T09:29:24;7.40;52.00
62575;DHT22;53112;45.602;11.904;2022-12-13T09:31:50;7.50;51.60
62575;DHT22;53112;45.602;11.904;2022-12-13T09:34:16;7.50;52.40
62575;DHT22;53112;45.602;11.904;2022-12-13T09:36:42;7.40;52.30
62575;DHT22;53112;45.602;11.904;2022-12-13T09:39:08;7.40;53.50
62575;DHT22;53112;45.602;11.904;2022-12-13T09:41:56;7.10;52.60
62575;DHT22;53112;45.602;11.904;2022-12-13T09:44:33;7.30;51.50
62575;DHT22;53112;45.602;11.904;2022-12-13T09:47:02;7.40;50.90
62575;DHT22;53112;45.602;11.904;2022-12-13T09:49:34;7.50;50.80
62575;DHT22;53112;45.602;11.904;2022-12-13T09:52:04;7.60;50.60
62575;DHT22;53112;45.602;11.904;2022-12-13T09:54:32;7.70;50.10
62575;DHT22;53112;45.602;11.904;2022-12-13T09:56:58;7.90;50.60
62575;DHT22;53112;45.602;11.904;2022-12-13T09:59:28;8.00;50.60
62575;DHT22;53112;45.602;11.904;2022-12-13T10:01:55;7.70;49.80
62575;DHT22;53112;45.602;11.904;2022-12-13T10:04:22;7.70;51.20
62575;DHT22;53112;45.602;11.904;2022-12-13T10:06:51;7.60;50.80
62575;DHT22;53112;45.602;11.904;2022-12-13T10:09:19;7.60;52.20
62575;DHT22;53112;45.602;11.904;2022-12-13T10:11:52;7.50;52.50
62575;DHT22;53112;45.602;11.904;2022-12-13T10:14:38;7.80;50.80
62575;DHT22;53112;45.602;11.904;2022-12-13T10:17:07;7.80;48.90
62575;DHT22;53112;45.602;11.904;2022-12-13T10:19:39;7.70;48.20
62575;DHT22;53112;45.602;11.904;2022-12-13T10:22:11;7.90;48.80
62575;DHT22;53112;45.602;11.904;2022-12-13T10:24:58;7.90;46.30
62575;DHT22;53112;45.602;11.904;2022-12-13T10:27:29;7.80;45.20
62575;DHT22;53112;45.602;11.904;2022-12-13T10:35:23;7.90;44.90
62575;DHT22;53112;45.602;11.904;2022-12-13T10:37:49;7.70;43.40
62575;DHT22;53112;45.602;11.904;2022-12-13T10:45:32;7.80;44.00
62575;DHT22;53112;45.602;11.904;2022-12-13T10:47:58;7.90;45.20
62575;DHT22;53112;45.602;11.904;2022-12-13T10:50:26;7.90;44.30
62575;DHT22;53112;45.602;11.904;2022-12-13T10:52:54;8.00;44.40
62575;DHT22;53112;45.602;11.904;2022-12-13T10:55:34;7.90;42.70
62575;DHT22;53112;45.602;11.904;2022-12-13T10:58:04;7.90;43.40
62575;DHT22;53112;45.602;11.904;2022-12-13T11:00:39;7.90;43.00
62575;DHT22;53112;45.602;11.904;2022-12-13T11:03:06;8.10;44.90
62575;DHT22;53112;45.602;11.904;2022-12-13T11:05:34;8.30;44.40
62575;DHT22;53112;45.602;11.904;2022-12-13T11:08:34;8.30;44.10
62575;DHT22;53112;45.602;11.904;2022-12-13T11:11:05;8.30;44.00
62575;DHT22;53112;45.602;11.904;2022-12-13T11:14:12;8.20;43.30
62575;DHT22;53112;45.602;11.904;2022-12-13T11:16:41;8.40;44.90
62575;DHT22;53112;45.602;11.904;2022-12-13T11:19:17;8.40;44.00
62575;DHT22;53112;45.602;11.904;2022-12-13T11:21:47;8.50;44.30
62575;DHT22;53112;45.602;11.904;2022-12-13T11:24:21;8.60;42.70
62575;DHT22;53112;45.602;11.904;2022-12-13T11:26:56;8.50;44.40
62575;DHT22;53112;45.602;11.904;2022-12-13T11:29:29;8.50;44.80
62575;DHT22;53112;45.602;11.904;2022-12-13T11:40:29;8.40;45.50
62575;DHT22;53112;45.602;11.904;2022-12-13T11:43:14;8.40;43.50
62575;DHT22;53112;45.602;11.904;2022-12-13T11:45:49;8.40;44.60
62575;DHT22;53112;45.602;11.904;2022-12-13T11:48:35;8.20;44.30
62575;DHT22;53112;45.602;11.904;2022-12-13T11:51:08;8.40;45.10
62575;DHT22;53112;45.602;11.904;2022-12-13T11:59:23;8.20;44.00
62575;DHT22;53112;45.602;11.904;2022-12-13T12:02:05;8.20;44.30
62575;DHT22;53112;45.602;11.904;2022-12-13T12:04:50;8.10;44.50
62575;DHT22;53112;45.602;11.904;2022-12-13T12:07:38;8.10;44.20
62575;DHT22;53112;45.602;11.904;2022-12-13T12:12:45;8.10;45.10
62575;DHT22;53112;45.602;11.904;2022-12-13T12:15:20;8.30;44.80
62575;DHT22;53112;45.602;11.904;2022-12-13T12:17:49;8.30;42.60
62575;DHT22;53112;45.602;11.904;2022-12-13T12:20:36;8.40;44.10
62575;DHT22;53112;45.602;11.904;2022-12-13T12:26:00;8.30;42.60
62575;DHT22;53112;45.602;11.904;2022-12-13T12:36:52;8.00;44.50
62575;DHT22;53112;45.602;11.904;2022-12-13T12:43:03;7.90;44.50
62575;DHT22;53112;45.602;11.904;2022-12-13T12:51:09;8.10;43.90
62575;DHT22;53112;45.602;11.904;2022-12-13T13:02:15;8.20;42.60
62575;DHT22;53112;45.602;11.904;2022-12-13T13:04:54;8.10;42.10
62575;DHT22;53112;45.602;11.904;2022-12-13T13:07:27;8.00;43.10
62575;DHT22;53112;45.602;11.904;2022-12-13T13:09:56;8.00;42.20
62575;DHT22;53112;45.602;11.904;2022-12-13T13:12:24;8.10;43.30
62575;DHT22;53112;45.602;11.904;2022-12-13T13:14:51;8.10;43.00
62575;DHT22;53112;45.602;11.904;2022-12-13T13:20:14;7.90;43.10
62575;DHT22;53112;45.602;11.904;2022-12-13T13:22:41;7.90;43.40
62575;DHT22;53112;45.602;11.904;2022-12-13T13:27:47;7.90;43.90
62575;DHT22;53112;45.602;11.904;2022-12-13T13:30:21;7.90;43.70
62575;DHT22;53112;45.602;11.904;2022-12-13T13:32:50;7.80;42.80
62575;DHT22;53112;45.602;11.904;2022-12-13T13:40:37;7.70;44.80
62575;DHT22;53112;45.602;11.904;2022-12-13T13:48:38;7.80;46.00
62575;DHT22;53112;45.602;11.904;2022-12-13T13:57:24;7.80;46.60
62575;DHT22;53112;45.602;11.904;2022-12-13T14:00:15;7.70;47.60
62575;DHT22;53112;45.602;11.904;2022-12-13T14:30:27;7.50;50.00
62575;DHT22;53112;45.602;11.904;2022-12-13T14:32:52;7.50;50.00
62575;DHT22;53112;45.602;11.904;2022-12-13T14:38:04;7.90;49.90
62575;DHT22;53112;45.602;11.904;2022-12-13T14:40:36;7.90;49.50
62575;DHT22;53112;45.602;11.904;2022-12-13T14:43:03;7.80;48.70
62575;DHT22;53112;45.602;11.904;2022-12-13T14:45:36;7.80;49.50
62575;DHT22;53112;45.602;11.904;2022-12-13T14:48:06;8.00;49.50
62575;DHT22;53112;45.602;11.904;2022-12-13T14:50:37;7.90;49.60
62575;DHT22;53112;45.602;11.904;2022-12-13T14:53:04;8.00;49.60
62575;DHT22;53112;45.602;11.904;2022-12-13T14:55:35;7.90;49.70
62575;DHT22;53112;45.602;11.904;2022-12-13T14:58:14;7.80;49.10
62575;DHT22;53112;45.602;11.904;2022-12-13T15:00:40;7.90;49.40
62575;DHT22;53112;45.602;11.904;2022-12-13T15:03:06;7.90;49.60
62575;DHT22;53112;45.602;11.904;2022-12-13T15:05:41;7.80;50.20
62575;DHT22;53112;45.602;11.904;2022-12-13T15:08:10;8.00;50.00
62575;DHT22;53112;45.602;11.904;2022-12-13T15:10:42;8.10;49.30
62575;DHT22;53112;45.602;11.904;2022-12-13T15:13:43;8.10;49.80
62575;DHT22;53112;45.602;11.904;2022-12-13T15:16:27;8.10;48.60
62575;DHT22;53112;45.602;11.904;2022-12-13T15:19:16;8.10;49.90
62575;DHT22;53112;45.602;11.904;2022-12-13T15:21:53;8.10;49.40
62575;DHT22;53112;45.602;11.904;2022-12-13T15:24:23;8.10;49.10
62575;DHT22;53112;45.602;11.904;2022-12-13T15:26:52;8.10;48.90
62575;DHT22;53112;45.602;11.904;2022-12-13T15:29:20;8.00;50.10
62575;DHT22;53112;45.602;11.904;2022-12-13T15:31:47;7.80;50.60
62575;DHT22;53112;45.602;11.904;2022-12-13T15:36:48;7.40;52.80
62575;DHT22;53112;45.602;11.904;2022-12-13T15:39:15;7.20;53.90
62575;DHT22;53112;45.602;11.904;2022-12-13T15:41:44;7.20;53.10
62575;DHT22;53112;45.602;11.904;2022-12-13T15:44:27;7.10;53.20
62575;DHT22;53112;45.602;11.904;2022-12-13T15:47:02;7.20;53.30
62575;DHT22;53112;45.602;11.904;2022-12-13T15:49:33;7.20;53.30
62575;DHT22;53112;45.602;11.904;2022-12-13T15:54:39;7.20;53.40
62575;DHT22;53112;45.602;11.904;2022-12-13T15:57:15;7.20;53.20
62575;DHT22;53112;45.602;11.904;2022-12-13T15:59:46;7.20;54.10
62575;DHT22;53112;45.602;11.904;2022-12-13T16:04:44;6.90;54.70
62575;DHT22;53112;45.602;11.904;2022-12-13T16:07:26;6.80;55.70
62575;DHT22;53112;45.602;11.904;2022-12-13T16:09:54;6.90;55.10
62575;DHT22;53112;45.602;11.904;2022-12-13T16:12:28;6.90;54.30
62575;DHT22;53112;45.602;11.904;2022-12-13T16:15:22;6.90;55.10
62575;DHT22;53112;45.602;11.904;2022-12-13T16:17:49;7.10;54.40
62575;DHT22;53112;45.602;11.904;2022-12-13T16:20:17;7.00;55.00
62575;DHT22;53112;45.602;11.904;2022-12-13T16:22:44;6.80;55.10
62575;DHT22;53112;45.602;11.904;2022-12-13T16:25:12;6.90;54.70
62575;DHT22;53112;45.602;11.904;2022-12-13T16:27:39;7.00;55.10
62575;DHT22;53112;45.602;11.904;2022-12-13T16:30:22;6.90;55.60
62575;DHT22;53112;45.602;11.904;2022-12-13T16:32:49;6.90;55.30
62575;DHT22;53112;45.602;11.904;2022-12-13T16:35:15;7.10;54.70
62575;DHT22;53112;45.602;11.904;2022-12-13T16:37:41;7.20;54.80
62575;DHT22;53112;45.602;11.904;2022-12-13T16:40:28;7.30;54.20
62575;DHT22;53112;45.602;11.904;2022-12-13T16:42:59;7.20;54.30
62575;DHT22;53112;45.602;11.904;2022-12-13T16:45:30;7.20;55.40
62575;DHT22;53112;45.602;11.904;2022-12-13T16:48:00;7.10;55.20
62575;DHT22;53112;45.602;11.904;2022-12-13T16:50:26;7.20;55.50
62575;DHT22;53112;45.602;11.904;2022-12-13T16:52:52;7.20;55.20
62575;DHT22;53112;45.602;11.904;2022-12-13T16:55:18;7.20;55.30
62575;DHT22;53112;45.602;11.904;2022-12-13T16:57:59;7.30;55.80
62575;DHT22;53112;45.602;11.904;2022-12-13T17:00:26;7.40;54.90
62575;DHT22;53112;45.602;11.904;2022-12-13T17:02:53;7.30;54.60
62575;DHT22;53112;45.602;11.904;2022-12-13T17:05:20;7.30;54.60
62575;DHT22;53112;45.602;11.904;2022-12-13T17:07:46;7.30;55.00
62575;DHT22;53112;45.602;11.904;2022-12-13T17:10:12;7.30;55.00
62575;DHT22;53112;45.602;11.904;2022-12-13T17:12:38;7.50;54.10
62575;DHT22;53112;45.602;11.904;2022-12-13T17:15:04;7.40;54.90
62575;DHT22;53112;45.602;11.904;2022-12-13T17:17:31;7.30;55.60
62575;DHT22;53112;45.602;11.904;2022-12-13T17:19:57;7.20;55.80
62575;DHT22;53112;45.602;11.904;2022-12-13T17:22:23;7.10;56.10
62575;DHT22;53112;45.602;11.904;2022-12-13T17:24:49;7.00;56.20
62575;DHT22;53112;45.602;11.904;2022-12-13T17:27:15;7.00;56.50
62575;DHT22;53112;45.602;11.904;2022-12-13T17:29:43;7.00;56.40
62575;DHT22;53112;45.602;11.904;2022-12-13T17:32:09;7.10;56.30
62575;DHT22;53112;45.602;11.904;2022-12-13T17:34:35;7.20;54.90
62575;DHT22;53112;45.602;11.904;2022-12-13T17:37:01;7.20;55.70
62575;DHT22;53112;45.602;11.904;2022-12-13T17:39:27;7.20;55.10
62575;DHT22;53112;45.602;11.904;2022-12-13T17:41:53;7.40;55.10
62575;DHT22;53112;45.602;11.904;2022-12-13T17:44:19;7.50;54.10
62575;DHT22;53112;45.602;11.904;2022-12-13T17:46:45;7.60;54.10
62575;DHT22;53112;45.602;11.904;2022-12-13T17:49:11;7.30;55.20
62575;DHT22;53112;45.602;11.904;2022-12-13T17:51:37;7.40;54.90
62575;DHT22;53112;45.602;11.904;2022-12-13T17:54:03;7.40;55.60
62575;DHT22;53112;45.602;11.904;2022-12-13T17:56:29;7.50;54.70
62575;DHT22;53112;45.602;11.904;2022-12-13T17:58:55;7.50;55.10
62575;DHT22;53112;45.602;11.904;2022-12-13T18:01:23;7.40;56.00
62575;DHT22;53112;45.602;11.904;2022-12-13T18:03:54;7.40;55.70
62575;DHT22;53112;45.602;11.904;2022-12-13T18:06:21;7.30;55.90
62575;DHT22;53112;45.602;11.904;2022-12-13T18:08:48;7.40;55.40